Time;durP1;ratioP1;P1;durP2;ratioP2;P2;SDS_P1;SDS_P2;PMS_P1;PMS_P2;Temp;Humidity;BMP_temperature;BMP_pressure;BME280_temperature;BME280_humidity;BME280_pressure;Samples;Min_cycle;Max_cycle;Signal;HPM_P1;HPM_P2
2023/04/20 00:00:20;;;;;;;4.33;3.00;;;;;;;;;;5066487;28;20120;-64
2023/04/20 00:02:46;;;;;;;3.67;2.90;;;;;;;;;;5060580;28;20243;-67
2023/04/20 00:05:11;;;;;;;3.72;2.88;;;;;;;;;;5061557;28;20324;-64
2023/04/20 00:07:37;;;;;;;3.90;2.85;;;;;;;;;;5048067;28;20237;-68
2023/04/20 00:10:03;;;;;;;3.65;2.95;;;;;;;;;;5064711;28;20033;-68
2023/04/20 00:12:28;;;;;;;4.43;3.00;;;;;;;;;;5043958;28;20495;-68
2023/04/20 00:14:53;;;;;;;4.00;2.90;;;;;;;;;;5066483;28;20127;-67
2023/04/20 00:17:19;;;;;;;3.60;3.20;;;;;;;;;;5051688;28;20371;-68
2023/04/20 00:19:45;;;;;;;3.50;2.77;;;;;;;;;;5037692;28;20037;-66
2023/04/20 00:22:10;;;;;;;3.20;2.70;;;;;;;;;;5062408;28;20401;-64
2023/04/20 00:24:35;;;;;;;3.97;2.78;;;;;;;;;;5046093;28;20563;-66
2023/04/20 00:27:00;;;;;;;4.03;2.87;;;;;;;;;;5066041;28;20501;-67
2023/04/20 00:29:26;;;;;;;3.93;3.00;;;;;;;;;;5041736;28;20505;-68
2023/04/20 00:31:51;;;;;;;3.50;2.72;;;;;;;;;;5047378;28;20555;-66
2023/04/20 00:34:16;;;;;;;3.77;3.07;;;;;;;;;;5064470;28;20035;-68
2023/04/20 00:36:41;;;;;;;3.80;2.60;;;;;;;;;;5047115;28;20290;-66
2023/04/20 00:39:07;;;;;;;3.10;2.47;;;;;;;;;;5047912;28;20718;-68
2023/04/20 00:41:32;;;;;;;3.47;2.70;;;;;;;;;;5065828;28;20045;-70
2023/04/20 00:43:57;;;;;;;3.13;2.70;;;;;;;;;;5057188;28;20932;-66
2023/04/20 00:46:22;;;;;;;3.92;2.83;;;;;;;;;;5039868;28;20279;-68
2023/04/20 00:48:49;;;;;;;3.87;2.90;;;;;;;;;;5065395;28;20167;-69
2023/04/20 00:51:15;;;;;;;3.75;3.05;;;;;;;;;;5045800;28;20073;-67
2023/04/20 00:53:40;;;;;;;3.90;2.90;;;;;;;;;;5047209;28;20044;-69
2023/04/20 00:56:05;;;;;;;3.63;2.90;;;;;;;;;;5038194;28;20052;-69
2023/04/20 00:58:31;;;;;;;3.00;2.58;;;;;;;;;;5065101;28;20037;-68
2023/04/20 01:00:56;;;;;;;3.70;2.87;;;;;;;;;;5064829;28;20606;-67
2023/04/20 01:03:22;;;;;;;3.55;2.90;;;;;;;;;;5027483;28;20116;-67
2023/04/20 01:05:47;;;;;;;3.63;2.80;;;;;;;;;;5059154;28;20124;-64
2023/04/20 01:08:12;;;;;;;3.42;2.92;;;;;;;;;;5042135;28;20417;-68
2023/04/20 01:10:37;;;;;;;3.93;2.90;;;;;;;;;;5061531;28;20478;-66
2023/04/20 01:13:03;;;;;;;3.87;2.83;;;;;;;;;;5046960;28;20303;-68
2023/04/20 01:15:28;;;;;;;3.27;2.73;;;;;;;;;;5063893;28;20029;-70
2023/04/20 01:17:53;;;;;;;4.03;2.93;;;;;;;;;;5028726;28;20095;-66
2023/04/20 01:20:22;;;;;;;3.28;2.90;;;;;;;;;;5025252;28;20333;-69
2023/04/20 01:22:48;;;;;;;3.65;2.75;;;;;;;;;;5056563;28;20150;-66
2023/04/20 01:25:13;;;;;;;3.85;2.80;;;;;;;;;;5029334;28;20048;-67
2023/04/20 01:27:38;;;;;;;4.32;3.00;;;;;;;;;;5064477;28;20149;-70
2023/04/20 01:30:04;;;;;;;3.03;2.70;;;;;;;;;;5046689;28;20033;-68
2023/04/20 01:32:30;;;;;;;3.63;2.85;;;;;;;;;;5064225;28;21186;-69
2023/04/20 01:34:55;;;;;;;3.50;2.70;;;;;;;;;;5064579;28;20029;-68
2023/04/20 01:37:20;;;;;;;2.90;2.50;;;;;;;;;;5042236;28;20040;-69
2023/04/20 01:39:46;;;;;;;3.33;2.93;;;;;;;;;;5065173;28;20032;-68
2023/04/20 01:42:11;;;;;;;3.20;2.83;;;;;;;;;;5049327;28;20048;-64
2023/04/20 01:44:36;;;;;;;3.30;2.73;;;;;;;;;;5051410;28;20040;-65
2023/04/20 01:47:01;;;;;;;3.70;2.87;;;;;;;;;;5042880;28;20326;-67
2023/04/20 01:49:27;;;;;;;3.60;2.83;;;;;;;;;;5061776;28;20076;-64
2023/04/20 01:51:52;;;;;;;3.53;2.67;;;;;;;;;;5067980;28;20290;-62
2023/04/20 01:54:17;;;;;;;3.28;2.55;;;;;;;;;;5068754;28;20692;-66
2023/04/20 01:56:42;;;;;;;3.88;3.00;;;;;;;;;;5064480;28;20517;-68
2023/04/20 01:59:08;;;;;;;3.00;2.40;;;;;;;;;;5058368;28;20037;-68
2023/04/20 02:01:33;;;;;;;3.20;2.57;;;;;;;;;;5062492;28;20322;-67
2023/04/20 02:03:59;;;;;;;3.50;2.55;;;;;;;;;;5064137;28;20661;-69
2023/04/20 02:06:24;;;;;;;3.70;2.88;;;;;;;;;;5064336;28;20097;-67
2023/04/20 02:08:49;;;;;;;4.30;2.80;;;;;;;;;;5059041;28;20033;-69
2023/04/20 02:11:15;;;;;;;3.30;3.00;;;;;;;;;;5062891;28;20336;-69
2023/04/20 02:13:40;;;;;;;4.17;3.00;;;;;;;;;;5046291;28;20036;-69
2023/04/20 02:16:05;;;;;;;3.15;2.45;;;;;;;;;;5052873;28;20299;-68
2023/04/20 02:18:31;;;;;;;4.03;2.85;;;;;;;;;;5052149;28;20120;-68
2023/04/20 02:20:57;;;;;;;4.72;2.85;;;;;;;;;;5046120;28;20446;-68
2023/04/20 02:23:22;;;;;;;3.33;2.53;;;;;;;;;;5046186;28;20043;-66
2023/04/20 02:25:47;;;;;;;3.97;2.80;;;;;;;;;;5038051;28;20032;-66
2023/04/20 02:28:13;;;;;;;3.30;2.85;;;;;;;;;;5056300;28;20120;-69
2023/04/20 02:30:38;;;;;;;3.30;2.37;;;;;;;;;;5055924;28;20029;-70
2023/04/20 02:33:03;;;;;;;3.15;2.55;;;;;;;;;;5063997;28;20885;-68
2023/04/20 02:35:28;;;;;;;3.90;2.67;;;;;;;;;;5064160;28;20131;-69
2023/04/20 02:37:54;;;;;;;4.80;2.87;;;;;;;;;;5055541;28;20086;-67
2023/04/20 02:40:19;;;;;;;2.88;2.42;;;;;;;;;;5062837;28;20298;-69
2023/04/20 02:42:44;;;;;;;3.22;2.90;;;;;;;;;;5045771;28;20124;-69
2023/04/20 02:45:10;;;;;;;3.27;2.67;;;;;;;;;;5045501;28;20052;-68
2023/04/20 02:47:35;;;;;;;3.42;2.60;;;;;;;;;;5064521;28;20829;-65
2023/04/20 02:50:00;;;;;;;3.85;3.08;;;;;;;;;;5067778;28;20040;-68
2023/04/20 02:52:26;;;;;;;4.15;3.08;;;;;;;;;;5067821;28;20059;-67
2023/04/20 02:54:51;;;;;;;4.30;2.90;;;;;;;;;;5067609;28;20526;-68
2023/04/20 02:57:16;;;;;;;2.93;2.53;;;;;;;;;;5044695;28;20625;-63
2023/04/20 02:59:42;;;;;;;4.13;3.10;;;;;;;;;;5065161;28;20682;-68
2023/04/20 03:02:07;;;;;;;3.75;3.17;;;;;;;;;;5067920;28;20678;-69
2023/04/20 03:04:32;;;;;;;3.43;2.50;;;;;;;;;;5045944;28;20041;-64
2023/04/20 03:06:59;;;;;;;3.05;2.55;;;;;;;;;;5049777;28;20435;-64
2023/04/20 03:09:24;;;;;;;2.88;2.45;;;;;;;;;;5061470;28;20555;-67
2023/04/20 03:11:49;;;;;;;3.80;2.97;;;;;;;;;;5061650;28;20029;-66
2023/04/20 03:14:15;;;;;;;4.50;2.97;;;;;;;;;;5043300;28;20698;-67
2023/04/20 03:16:40;;;;;;;3.25;2.85;;;;;;;;;;5028579;28;20051;-65
2023/04/20 03:19:06;;;;;;;3.00;2.70;;;;;;;;;;5054137;28;20017;-69
2023/04/20 03:21:31;;;;;;;2.90;2.50;;;;;;;;;;5053508;28;20123;-70
2023/04/20 03:23:57;;;;;;;3.55;2.72;;;;;;;;;;5050747;28;20677;-67
2023/04/20 03:26:23;;;;;;;3.30;2.45;;;;;;;;;;5065391;28;20503;-65
2023/04/20 03:28:48;;;;;;;3.10;2.75;;;;;;;;;;5067088;28;20508;-69
2023/04/20 03:31:14;;;;;;;3.08;2.60;;;;;;;;;;5048997;28;20634;-69
2023/04/20 03:33:39;;;;;;;3.77;2.80;;;;;;;;;;5066871;28;20021;-66
2023/04/20 03:36:05;;;;;;;3.00;2.50;;;;;;;;;;5066633;28;20337;-67
2023/04/20 03:38:30;;;;;;;3.70;2.70;;;;;;;;;;5063317;28;20314;-69
2023/04/20 03:40:55;;;;;;;3.30;2.57;;;;;;;;;;5066624;28;20395;-68
2023/04/20 03:43:20;;;;;;;3.97;2.83;;;;;;;;;;5067161;28;20360;-68
2023/04/20 03:45:46;;;;;;;3.40;2.53;;;;;;;;;;5067316;28;20374;-68
2023/04/20 03:48:11;;;;;;;3.22;2.70;;;;;;;;;;5066100;28;20023;-69
2023/04/20 03:50:36;;;;;;;3.67;2.72;;;;;;;;;;5066527;28;20074;-68
2023/04/20 03:53:01;;;;;;;3.17;2.83;;;;;;;;;;5067109;28;20432;-66
2023/04/20 03:55:27;;;;;;;3.10;2.67;;;;;;;;;;5063323;28;20587;-66
2023/04/20 03:57:52;;;;;;;3.70;3.03;;;;;;;;;;5065889;28;20352;-69
2023/04/20 04:00:18;;;;;;;3.05;2.67;;;;;;;;;;5066470;28;20098;-66
2023/04/20 04:02:43;;;;;;;2.90;2.60;;;;;;;;;;5065602;28;20039;-68
2023/04/20 04:05:08;;;;;;;3.87;3.00;;;;;;;;;;5028380;28;20013;-69
2023/04/20 04:07:33;;;;;;;3.40;2.90;;;;;;;;;;5060521;28;20021;-64
2023/04/20 04:09:59;;;;;;;3.00;2.70;;;;;;;;;;5060643;28;20338;-68
2023/04/20 04:12:24;;;;;;;2.83;2.45;;;;;;;;;;5042198;28;20262;-67
2023/04/20 04:14:49;;;;;;;4.83;2.90;;;;;;;;;;5046490;28;20043;-66
2023/04/20 04:17:14;;;;;;;3.40;2.80;;;;;;;;;;5061822;28;20028;-67
2023/04/20 04:19:39;;;;;;;4.73;2.63;;;;;;;;;;5065592;28;20023;-67
2023/04/20 04:22:05;;;;;;;3.43;2.70;;;;;;;;;;5061228;28;20340;-69
2023/04/20 04:24:32;;;;;;;3.88;2.60;;;;;;;;;;5054025;28;20025;-68
2023/04/20 04:26:57;;;;;;;3.13;2.63;;;;;;;;;;5036226;28;20025;-67
2023/04/20 04:29:24;;;;;;;2.85;2.40;;;;;;;;;;5057609;28;20131;-66
2023/04/20 04:31:50;;;;;;;3.10;2.50;;;;;;;;;;5037703;28;20028;-67
2023/04/20 04:34:17;;;;;;;3.05;2.45;;;;;;;;;;5045314;28;20401;-68
2023/04/20 04:36:43;;;;;;;3.88;2.92;;;;;;;;;;5052048;28;20597;-68
2023/04/20 04:39:08;;;;;;;3.22;2.30;;;;;;;;;;5049549;28;20036;-68
2023/04/20 04:41:33;;;;;;;3.20;2.38;;;;;;;;;;5046321;28;20118;-65
2023/04/20 04:43:59;;;;;;;3.25;2.33;;;;;;;;;;5051090;28;20044;-68
2023/04/20 04:46:26;;;;;;;3.05;2.22;;;;;;;;;;5058413;28;20033;-67
2023/04/20 04:48:51;;;;;;;2.90;2.50;;;;;;;;;;5044904;28;20618;-66
2023/04/20 04:51:16;;;;;;;2.80;2.10;;;;;;;;;;5032877;28;20033;-65
2023/04/20 04:53:43;;;;;;;2.40;2.20;;;;;;;;;;5054488;28;20394;-68
2023/04/20 04:56:09;;;;;;;2.42;2.15;;;;;;;;;;5055209;28;20275;-69
2023/04/20 04:58:34;;;;;;;3.17;2.67;;;;;;;;;;5061221;28;20052;-66
2023/04/20 05:00:59;;;;;;;2.65;2.15;;;;;;;;;;5039523;28;20489;-66
2023/04/20 05:03:25;;;;;;;2.87;2.20;;;;;;;;;;5057031;28;20043;-68
2023/04/20 05:05:50;;;;;;;3.23;2.53;;;;;;;;;;5048914;28;20299;-67
2023/04/20 05:08:15;;;;;;;3.10;2.40;;;;;;;;;;5060074;28;20611;-67
2023/04/20 05:10:40;;;;;;;2.83;2.37;;;;;;;;;;5063773;28;20534;-66
2023/04/20 05:13:05;;;;;;;2.90;2.30;;;;;;;;;;5058483;28;20473;-67
2023/04/20 05:15:31;;;;;;;2.92;2.45;;;;;;;;;;5059752;28;20295;-69
2023/04/20 05:17:56;;;;;;;4.15;2.50;;;;;;;;;;5050609;28;20048;-67
2023/04/20 05:20:21;;;;;;;2.70;2.20;;;;;;;;;;5047416;28;20037;-68
2023/04/20 05:22:46;;;;;;;3.75;2.55;;;;;;;;;;5037998;28;20138;-68
2023/04/20 05:25:12;;;;;;;3.00;2.33;;;;;;;;;;5036607;28;20117;-69
2023/04/20 05:27:37;;;;;;;3.37;2.20;;;;;;;;;;5028541;28;20366;-69
2023/04/20 05:30:02;;;;;;;5.07;2.63;;;;;;;;;;5028936;28;20083;-66
2023/04/20 05:32:28;;;;;;;3.63;2.65;;;;;;;;;;5057001;28;20074;-69
2023/04/20 05:34:53;;;;;;;3.03;2.50;;;;;;;;;;5051416;28;20041;-68
2023/04/20 05:37:18;;;;;;;4.10;2.33;;;;;;;;;;5055843;28;20111;-68
2023/04/20 05:39:43;;;;;;;3.23;2.27;;;;;;;;;;5030391;28;20856;-70
2023/04/20 05:42:09;;;;;;;4.13;2.63;;;;;;;;;;5058892;28;20279;-68
2023/04/20 05:44:35;;;;;;;3.10;2.60;;;;;;;;;;5027147;28;20055;-69
2023/04/20 05:47:00;;;;;;;3.50;2.58;;;;;;;;;;5053505;28;20295;-65
2023/04/20 05:49:26;;;;;;;3.80;2.60;;;;;;;;;;5054026;28;20051;-70
2023/04/20 05:51:51;;;;;;;3.20;2.40;;;;;;;;;;5035287;28;20110;-69
2023/04/20 05:54:16;;;;;;;4.03;2.70;;;;;;;;;;5045615;28;20277;-65
2023/04/20 05:56:41;;;;;;;3.60;2.23;;;;;;;;;;5054943;28;20451;-63
2023/04/20 05:59:07;;;;;;;3.70;2.70;;;;;;;;;;5061380;28;20033;-63
2023/04/20 06:01:32;;;;;;;2.97;2.17;;;;;;;;;;5051879;28;20060;-66
2023/04/20 06:03:57;;;;;;;2.80;2.37;;;;;;;;;;5027600;28;20771;-68
2023/04/20 06:06:22;;;;;;;3.90;2.65;;;;;;;;;;5050077;28;20325;-66
2023/04/20 06:08:49;;;;;;;3.13;2.37;;;;;;;;;;5055364;28;20568;-66
2023/04/20 06:11:14;;;;;;;3.33;2.80;;;;;;;;;;5034267;28;20056;-68
2023/04/20 06:13:40;;;;;;;3.03;2.40;;;;;;;;;;5047249;28;20072;-62
2023/04/20 06:16:08;;;;;;;3.65;2.92;;;;;;;;;;5056626;28;20290;-71
2023/04/20 06:18:33;;;;;;;3.65;2.53;;;;;;;;;;5046382;28;20037;-66
2023/04/20 06:21:00;;;;;;;2.83;2.05;;;;;;;;;;5043828;28;20143;-65
2023/04/20 06:23:25;;;;;;;4.05;2.60;;;;;;;;;;5061592;28;20064;-69
2023/04/20 06:25:50;;;;;;;3.20;2.50;;;;;;;;;;5056581;28;20130;-72
2023/04/20 06:28:15;;;;;;;3.30;2.50;;;;;;;;;;5060649;28;20263;-65
2023/04/20 06:30:41;;;;;;;3.72;2.40;;;;;;;;;;5064757;28;20100;-69
2023/04/20 06:33:06;;;;;;;3.30;2.57;;;;;;;;;;5059422;28;20428;-66
2023/04/20 06:35:31;;;;;;;3.20;2.33;;;;;;;;;;5049297;28;20275;-71
2023/04/20 06:37:56;;;;;;;4.47;2.60;;;;;;;;;;5056554;28;20120;-70
2023/04/20 06:40:22;;;;;;;4.15;2.72;;;;;;;;;;5046715;28;20875;-68
2023/04/20 06:42:47;;;;;;;3.63;2.70;;;;;;;;;;5041760;28;20071;-67
2023/04/20 06:45:12;;;;;;;4.23;2.83;;;;;;;;;;5057838;28;20033;-70
2023/04/20 06:47:38;;;;;;;3.00;2.50;;;;;;;;;;5058112;28;20279;-71
2023/04/20 06:50:06;;;;;;;4.27;2.60;;;;;;;;;;5050739;28;20121;-72
2023/04/20 06:52:31;;;;;;;4.05;2.88;;;;;;;;;;5018374;28;20331;-65
2023/04/20 06:54:59;;;;;;;4.55;2.63;;;;;;;;;;5030662;28;20424;-68
2023/04/20 06:57:25;;;;;;;5.00;3.20;;;;;;;;;;5031642;28;20052;-69
2023/04/20 06:59:50;;;;;;;3.33;2.67;;;;;;;;;;5029690;28;20030;-70
2023/04/20 07:02:15;;;;;;;6.15;2.88;;;;;;;;;;5023616;28;20326;-65
2023/04/20 07:04:40;;;;;;;3.10;2.43;;;;;;;;;;5024956;28;20448;-68
2023/04/20 07:07:06;;;;;;;3.83;2.47;;;;;;;;;;5042131;28;20299;-69
2023/04/20 07:09:31;;;;;;;2.93;2.30;;;;;;;;;;5024373;28;20453;-68
2023/04/20 07:11:56;;;;;;;4.57;2.60;;;;;;;;;;5042169;28;20390;-67
2023/04/20 07:14:21;;;;;;;3.83;2.70;;;;;;;;;;5028802;28;20033;-67
2023/04/20 07:16:47;;;;;;;3.53;2.30;;;;;;;;;;5030882;28;20280;-67
2023/04/20 07:19:12;;;;;;;3.97;2.70;;;;;;;;;;5028724;28;20387;-67
2023/04/20 07:21:37;;;;;;;3.23;2.43;;;;;;;;;;5032643;28;20311;-66
2023/04/20 07:24:02;;;;;;;4.60;2.70;;;;;;;;;;5022430;28;20048;-68
2023/04/20 07:26:28;;;;;;;3.00;2.40;;;;;;;;;;5033714;28;20311;-66
2023/04/20 07:28:53;;;;;;;4.15;2.83;;;;;;;;;;5032293;28;20056;-66
2023/04/20 07:31:18;;;;;;;4.20;2.90;;;;;;;;;;5034250;28;20080;-66
2023/04/20 07:33:43;;;;;;;3.40;2.60;;;;;;;;;;5026518;28;20038;-66
2023/04/20 07:36:09;;;;;;;3.40;2.55;;;;;;;;;;5028391;28;20828;-68
2023/04/20 07:38:34;;;;;;;3.17;2.55;;;;;;;;;;5039432;28;20528;-65
2023/04/20 07:41:00;;;;;;;4.07;2.53;;;;;;;;;;5010319;28;20091;-67
2023/04/20 07:43:25;;;;;;;4.75;2.78;;;;;;;;;;5034858;28;20353;-71
2023/04/20 07:45:50;;;;;;;3.60;2.70;;;;;;;;;;5037150;28;20112;-71
2023/04/20 07:48:15;;;;;;;4.33;2.60;;;;;;;;;;5039335;28;20394;-66
2023/04/20 07:50:41;;;;;;;3.67;2.67;;;;;;;;;;5026627;28;20272;-69
2023/04/20 07:53:06;;;;;;;4.25;2.75;;;;;;;;;;5027875;28;20033;-68
2023/04/20 07:55:31;;;;;;;3.30;2.67;;;;;;;;;;5039404;28;20087;-70
2023/04/20 07:57:56;;;;;;;3.53;2.77;;;;;;;;;;5047538;28;20283;-69
2023/04/20 08:00:22;;;;;;;4.07;2.87;;;;;;;;;;5054045;28;20647;-64
2023/04/20 08:02:47;;;;;;;3.70;2.60;;;;;;;;;;5059600;28;20051;-69
2023/04/20 08:05:12;;;;;;;3.47;2.60;;;;;;;;;;5029377;28;20066;-69
2023/04/20 08:07:37;;;;;;;3.55;2.72;;;;;;;;;;5047535;28;20315;-65
2023/04/20 08:10:03;;;;;;;5.07;2.92;;;;;;;;;;5029018;28;20171;-68
2023/04/20 08:12:29;;;;;;;4.05;2.67;;;;;;;;;;5043642;28;20033;-70
2023/04/20 08:14:58;;;;;;;3.63;2.40;;;;;;;;;;5066156;28;20033;-71
2023/04/20 08:17:23;;;;;;;4.35;2.58;;;;;;;;;;5048315;28;20282;-68
2023/04/20 08:19:49;;;;;;;3.93;3.20;;;;;;;;;;5045818;28;20169;-71
2023/04/20 08:22:14;;;;;;;3.80;2.83;;;;;;;;;;5065399;28;20525;-71
2023/04/20 08:24:39;;;;;;;4.03;2.67;;;;;;;;;;5048795;28;20524;-72
2023/04/20 08:27:05;;;;;;;4.27;2.57;;;;;;;;;;5066091;28;20032;-65
2023/04/20 08:29:30;;;;;;;3.95;2.90;;;;;;;;;;5048824;28;20028;-71
2023/04/20 08:31:56;;;;;;;4.73;2.70;;;;;;;;;;5066109;28;20162;-68
2023/04/20 08:34:21;;;;;;;3.95;2.85;;;;;;;;;;5060717;28;20879;-67
2023/04/20 08:36:46;;;;;;;4.27;2.70;;;;;;;;;;5047342;28;20090;-68
2023/04/20 08:39:12;;;;;;;4.00;3.10;;;;;;;;;;5065357;28;20037;-71
2023/04/20 08:41:37;;;;;;;3.53;2.70;;;;;;;;;;5030796;28;20290;-66
2023/04/20 08:44:03;;;;;;;3.80;3.07;;;;;;;;;;5058654;28;20114;-67
2023/04/20 08:46:28;;;;;;;4.05;2.90;;;;;;;;;;5047444;28;20283;-69
2023/04/20 08:48:56;;;;;;;4.15;3.08;;;;;;;;;;5018348;28;20028;-67
2023/04/20 08:51:22;;;;;;;3.95;2.97;;;;;;;;;;5047151;28;20068;-66
2023/04/20 08:53:47;;;;;;;3.67;2.53;;;;;;;;;;5048486;28;20079;-69
2023/04/20 08:56:12;;;;;;;3.80;3.13;;;;;;;;;;5062733;28;20238;-70
2023/04/20 08:58:41;;;;;;;5.63;3.30;;;;;;;;;;5045511;28;20219;-71
2023/04/20 09:01:10;;;;;;;4.00;3.10;;;;;;;;;;5063768;28;20360;-70
2023/04/20 09:03:38;;;;;;;4.93;2.97;;;;;;;;;;5036629;28;20097;-66
2023/04/20 09:06:13;;;;;;;3.20;2.80;;;;;;;;;;5038288;28;20036;-68
2023/04/20 09:08:39;;;;;;;3.40;2.75;;;;;;;;;;5054387;28;20040;-67
2023/04/20 09:11:05;;;;;;;3.25;2.50;;;;;;;;;;5044598;28;20069;-66
2023/04/20 09:13:30;;;;;;;3.92;3.08;;;;;;;;;;5028588;28;20485;-71
2023/04/20 09:15:55;;;;;;;3.60;3.00;;;;;;;;;;5062851;28;20493;-71
2023/04/20 09:18:22;;;;;;;3.75;2.85;;;;;;;;;;5044858;28;20559;-66
2023/04/20 09:20:47;;;;;;;4.70;3.25;;;;;;;;;;5063313;28;20210;-65
2023/04/20 09:23:13;;;;;;;3.07;2.77;;;;;;;;;;5064611;28;20580;-68
2023/04/20 09:25:39;;;;;;;3.90;2.92;;;;;;;;;;5031450;28;20690;-66
2023/04/20 09:28:05;;;;;;;4.07;2.92;;;;;;;;;;5063861;28;20147;-67
2023/04/20 09:30:40;;;;;;;3.78;2.97;;;;;;;;;;5062503;28;20055;-67
2023/04/20 09:33:10;;;;;;;3.92;2.80;;;;;;;;;;5042237;28;20036;-71
2023/04/20 09:35:37;;;;;;;3.53;2.63;;;;;;;;;;5047364;28;20135;-69
2023/04/20 09:38:02;;;;;;;4.95;2.88;;;;;;;;;;5064251;28;20086;-70
2023/04/20 09:40:27;;;;;;;3.00;2.63;;;;;;;;;;5065085;28;20032;-69
2023/04/20 09:42:53;;;;;;;3.67;2.83;;;;;;;;;;5034512;28;20060;-66
2023/04/20 09:45:19;;;;;;;3.03;2.58;;;;;;;;;;5063753;28;20039;-67
2023/04/20 09:47:44;;;;;;;2.88;2.58;;;;;;;;;;5054965;28;20490;-65
2023/04/20 09:50:10;;;;;;;24.30;4.75;;;;;;;;;;5057392;28;20444;-65
2023/04/20 09:52:36;;;;;;;24.33;4.25;;;;;;;;;;5061318;28;20053;-70
2023/04/20 09:55:01;;;;;;;15.07;3.17;;;;;;;;;;5055188;28;20037;-71
2023/04/20 09:57:26;;;;;;;6.37;3.33;;;;;;;;;;5019020;28;20079;-67
2023/04/20 09:59:52;;;;;;;8.03;3.27;;;;;;;;;;5059382;28;20359;-68
2023/04/20 10:02:17;;;;;;;7.05;3.20;;;;;;;;;;5044662;28;20056;-67
2023/04/20 10:04:52;;;;;;;7.17;3.30;;;;;;;;;;5051299;28;20542;-68
2023/04/20 10:07:27;;;;;;;5.75;3.17;;;;;;;;;;5058789;28;20278;-63
2023/04/20 10:10:06;;;;;;;7.32;3.80;;;;;;;;;;5032922;28;20471;-63
2023/04/20 10:12:31;;;;;;;4.75;2.95;;;;;;;;;;5049526;28;20043;-65
2023/04/20 10:14:56;;;;;;;6.45;3.10;;;;;;;;;;5054952;28;20024;-68
2023/04/20 10:17:30;;;;;;;5.23;3.23;;;;;;;;;;5048580;28;20048;-65
2023/04/20 10:19:56;;;;;;;4.97;3.00;;;;;;;;;;5058104;28;20362;-67
2023/04/20 10:22:39;;;;;;;4.87;3.17;;;;;;;;;;5041626;28;20104;-68
2023/04/20 10:25:13;;;;;;;5.93;3.30;;;;;;;;;;5052963;28;20338;-68
2023/04/20 10:27:38;;;;;;;5.05;3.25;;;;;;;;;;5019938;28;20032;-68
2023/04/20 10:30:09;;;;;;;4.13;2.93;;;;;;;;;;5060651;28;20075;-68
2023/04/20 10:32:35;;;;;;;6.45;3.30;;;;;;;;;;5044805;28;20091;-65
2023/04/20 10:35:10;;;;;;;6.03;3.20;;;;;;;;;;5045444;28;20033;-68
2023/04/20 10:37:37;;;;;;;6.00;3.25;;;;;;;;;;5027233;28;20041;-68
2023/04/20 10:40:03;;;;;;;4.28;2.92;;;;;;;;;;5047150;28;20070;-69
2023/04/20 10:42:28;;;;;;;5.53;3.40;;;;;;;;;;5058085;28;20536;-69
2023/04/20 10:44:54;;;;;;;5.63;3.40;;;;;;;;;;5054822;28;20121;-71
2023/04/20 10:47:25;;;;;;;6.65;3.47;;;;;;;;;;5058030;28;20299;-68
2023/04/20 10:49:50;;;;;;;5.85;3.10;;;;;;;;;;5029232;28;20489;-70
2023/04/20 10:52:15;;;;;;;6.13;3.07;;;;;;;;;;5027341;28;20086;-65
2023/04/20 10:54:41;;;;;;;6.00;3.30;;;;;;;;;;5050623;28;20391;-66
2023/04/20 10:57:06;;;;;;;3.80;2.77;;;;;;;;;;5048480;28;20061;-68
2023/04/20 10:59:32;;;;;;;7.07;3.50;;;;;;;;;;5045279;28;20083;-69
2023/04/20 11:02:00;;;;;;;8.63;3.95;;;;;;;;;;5047526;28;20083;-65
2023/04/20 11:04:31;;;;;;;5.40;3.25;;;;;;;;;;5048646;28;20029;-67
2023/04/20 11:07:03;;;;;;;5.40;3.20;;;;;;;;;;5058147;28;20085;-72
2023/04/20 11:09:28;;;;;;;5.22;3.47;;;;;;;;;;5050829;28;20039;-72
2023/04/20 11:12:03;;;;;;;7.55;3.47;;;;;;;;;;5047590;28;20123;-68
2023/04/20 11:14:29;;;;;;;5.53;3.22;;;;;;;;;;5041817;28;20079;-67
2023/04/20 11:16:54;;;;;;;4.25;3.20;;;;;;;;;;5032492;28;20524;-75
2023/04/20 11:19:24;;;;;;;5.00;3.20;;;;;;;;;;5049946;28;20120;-65
2023/04/20 11:21:49;;;;;;;4.25;3.03;;;;;;;;;;5053086;28;20762;-72
2023/04/20 11:24:21;;;;;;;4.87;3.17;;;;;;;;;;5037566;28;20036;-65
2023/04/20 11:26:50;;;;;;;4.07;3.10;;;;;;;;;;5046042;28;20276;-65
2023/04/20 11:29:32;;;;;;;5.25;3.22;;;;;;;;;;5065509;28;20033;-68
2023/04/20 11:31:57;;;;;;;7.40;3.65;;;;;;;;;;5050462;28;20080;-68
2023/04/20 11:34:23;;;;;;;5.43;3.45;;;;;;;;;;5034695;28;20481;-70
2023/04/20 11:36:49;;;;;;;4.40;2.97;;;;;;;;;;5053268;28;20096;-69
2023/04/20 11:39:21;;;;;;;6.25;3.38;;;;;;;;;;5065464;28;20500;-72
2023/04/20 11:41:46;;;;;;;6.00;3.45;;;;;;;;;;5051066;28;20111;-68
2023/04/20 11:44:13;;;;;;;4.97;3.33;;;;;;;;;;5049908;28;20025;-69
2023/04/20 11:46:39;;;;;;;4.30;3.40;;;;;;;;;;5065619;28;20370;-68
2023/04/20 11:49:04;;;;;;;5.20;3.67;;;;;;;;;;5067998;28;20500;-68
2023/04/20 11:51:30;;;;;;;4.95;3.17;;;;;;;;;;5037781;28;20393;-70
2023/04/20 11:53:56;;;;;;;5.75;3.50;;;;;;;;;;5062090;28;20067;-66
2023/04/20 11:56:21;;;;;;;4.70;3.30;;;;;;;;;;5033495;28;20063;-69
2023/04/20 11:58:46;;;;;;;4.47;3.43;;;;;;;;;;5008297;28;20080;-68
2023/04/20 12:01:12;;;;;;;4.40;3.42;;;;;;;;;;5022391;28;20054;-69
2023/04/20 12:03:37;;;;;;;6.00;3.50;;;;;;;;;;5023112;28;20422;-68
2023/04/20 12:06:02;;;;;;;5.90;3.73;;;;;;;;;;5021077;28;20025;-71
2023/04/20 12:08:27;;;;;;;4.95;3.50;;;;;;;;;;5024254;28;20267;-71
2023/04/20 12:10:53;;;;;;;5.67;3.90;;;;;;;;;;5025764;28;20056;-67
2023/04/20 12:13:18;;;;;;;5.85;3.45;;;;;;;;;;5019679;28;20060;-69
2023/04/20 12:15:43;;;;;;;4.03;3.20;;;;;;;;;;5014088;28;20026;-71
2023/04/20 12:18:09;;;;;;;5.10;3.80;;;;;;;;;;5011155;28;20104;-70
2023/04/20 12:20:34;;;;;;;5.22;3.40;;;;;;;;;;5013702;28;20068;-69
2023/04/20 12:23:01;;;;;;;5.05;3.22;;;;;;;;;;5017644;28;20545;-67
2023/04/20 12:25:26;;;;;;;5.57;3.75;;;;;;;;;;5024534;28;20018;-66
2023/04/20 12:27:51;;;;;;;4.73;3.13;;;;;;;;;;5010363;28;20123;-68
2023/04/20 12:30:17;;;;;;;4.87;3.40;;;;;;;;;;5020551;28;20060;-68
2023/04/20 12:32:42;;;;;;;4.72;3.50;;;;;;;;;;5020754;28;20277;-66
2023/04/20 12:35:08;;;;;;;5.30;4.03;;;;;;;;;;5013850;28;20179;-67
2023/04/20 12:37:33;;;;;;;4.40;3.65;;;;;;;;;;5023264;28;20841;-69
2023/04/20 12:39:59;;;;;;;5.05;3.80;;;;;;;;;;5027011;28;20094;-63
2023/04/20 12:42:24;;;;;;;4.95;3.63;;;;;;;;;;5016016;28;20117;-68
2023/04/20 12:44:51;;;;;;;4.30;3.43;;;;;;;;;;5012607;28;20020;-71
2023/04/20 12:47:17;;;;;;;4.65;3.42;;;;;;;;;;5015142;28;20283;-65
2023/04/20 12:49:42;;;;;;;4.30;3.60;;;;;;;;;;5017554;28;20018;-65
2023/04/20 12:52:07;;;;;;;5.20;3.20;;;;;;;;;;5027253;28;20029;-68
2023/04/20 12:54:33;;;;;;;4.20;3.55;;;;;;;;;;5011810;28;20312;-66
2023/04/20 12:56:58;;;;;;;5.43;3.97;;;;;;;;;;5021611;28;20049;-67
2023/04/20 12:59:23;;;;;;;6.67;4.30;;;;;;;;;;5046771;28;20033;-66
2023/04/20 13:01:49;;;;;;;7.78;4.38;;;;;;;;;;5011976;28;20053;-70
2023/04/20 13:04:14;;;;;;;5.90;3.65;;;;;;;;;;5034292;28;20057;-65
2023/04/20 13:06:40;;;;;;;4.53;3.35;;;;;;;;;;5065839;28;20036;-65
2023/04/20 13:09:05;;;;;;;4.75;3.63;;;;;;;;;;5047119;28;20082;-67
2023/04/20 13:11:31;;;;;;;4.80;3.53;;;;;;;;;;5054116;28;20036;-67
2023/04/20 13:13:56;;;;;;;4.47;3.40;;;;;;;;;;5051197;28;20072;-69
2023/04/20 13:16:22;;;;;;;4.05;3.47;;;;;;;;;;5056924;28;20058;-65
2023/04/20 13:18:47;;;;;;;4.40;3.88;;;;;;;;;;5046919;28;20032;-67
2023/04/20 13:21:14;;;;;;;6.05;3.90;;;;;;;;;;5050169;28;20106;-72
2023/04/20 13:23:39;;;;;;;4.15;3.33;;;;;;;;;;5066652;28;20159;-70
2023/04/20 13:26:05;;;;;;;4.32;3.30;;;;;;;;;;5036329;28;20147;-74
2023/04/20 13:28:30;;;;;;;4.10;3.35;;;;;;;;;;5046791;28;20120;-74
2023/04/20 13:30:56;;;;;;;4.37;3.40;;;;;;;;;;5029013;28;20087;-73
2023/04/20 13:33:21;;;;;;;4.93;3.38;;;;;;;;;;5028562;28;20036;-70
2023/04/20 13:35:47;;;;;;;4.47;3.47;;;;;;;;;;5028587;28;20090;-67
2023/04/20 13:38:12;;;;;;;4.53;3.20;;;;;;;;;;5045580;28;20456;-67
2023/04/20 13:40:37;;;;;;;5.13;3.63;;;;;;;;;;5039611;28;20272;-71
2023/04/20 13:43:02;;;;;;;5.23;3.10;;;;;;;;;;5028973;28;20291;-73
2023/04/20 13:45:28;;;;;;;7.78;5.18;;;;;;;;;;5031714;28;20043;-72
2023/04/20 13:47:53;;;;;;;5.65;3.50;;;;;;;;;;5047487;28;20036;-70
2023/04/20 13:50:19;;;;;;;4.40;3.38;;;;;;;;;;5030845;28;20055;-70
2023/04/20 13:52:44;;;;;;;4.50;3.20;;;;;;;;;;5048112;28;20159;-72
2023/04/20 13:55:09;;;;;;;4.57;3.38;;;;;;;;;;5028723;28;20279;-68
2023/04/20 13:57:34;;;;;;;5.25;3.33;;;;;;;;;;5038535;28;20457;-70
2023/04/20 14:00:00;;;;;;;4.03;3.10;;;;;;;;;;5045747;28;20357;-69
2023/04/20 14:02:26;;;;;;;3.70;3.30;;;;;;;;;;5045915;28;20302;-67
2023/04/20 14:04:51;;;;;;;5.28;3.80;;;;;;;;;;5011423;28;20079;-73
2023/04/20 14:07:16;;;;;;;4.80;3.50;;;;;;;;;;5054702;28;20033;-72
2023/04/20 14:09:45;;;;;;;5.00;3.60;;;;;;;;;;5036983;28;20276;-70
2023/04/20 14:12:10;;;;;;;4.68;3.75;;;;;;;;;;5054962;28;20429;-70
2023/04/20 14:14:36;;;;;;;4.00;3.40;;;;;;;;;;5032822;28;20033;-70
2023/04/20 14:17:01;;;;;;;4.80;3.15;;;;;;;;;;5051343;28;20745;-71
2023/04/20 14:19:26;;;;;;;3.97;3.50;;;;;;;;;;5052236;28;20032;-70
2023/04/20 14:21:51;;;;;;;4.72;3.53;;;;;;;;;;5057305;28;20867;-69
2023/04/20 14:24:17;;;;;;;3.60;3.13;;;;;;;;;;5060346;28;20480;-69
2023/04/20 14:26:42;;;;;;;4.93;3.30;;;;;;;;;;5048436;28;20586;-66
2023/04/20 14:29:07;;;;;;;4.05;3.40;;;;;;;;;;5065834;28;20528;-70
2023/04/20 14:31:33;;;;;;;4.05;3.40;;;;;;;;;;5056274;28;20068;-70
2023/04/20 14:33:59;;;;;;;4.55;3.50;;;;;;;;;;5033859;28;20383;-71